To NAV CANADA Home Page Login to a new session Search on AWWS site Feedback and Comments Disclaimer Vers la page française équivalente Tips FAQ What's new on the site To the Forecasts and Observations / NOTAM section To "File a Flight Plan" website Publications and other links Update of the User's profile FIC Telephone Numbers My Weather Data Folder Route Weather Data Regional Weather Data Local Weather Data To the Forecasts and Observations / NOTAM section
Request Generated 08/02/2015 at 04:12:54 UTC . Weather information available at that time is displayed.

METAR/TAF

MONTREAL/PIERRE-ELLIOTT-TRUDEAU INTL/QC    

METAR CYUL 020400Z 24005KT 15SM FEW110 BKN220 17/15 A2978 RMK AC1CI7
AC TR SLP085 DENSITY ALT 500FT=
METAR CYUL 020300Z 23006KT 15SM FEW110 BKN220 17/15 A2978 RMK AC1CI6
SLP085 DENSITY ALT 500FT=
METAR CYUL 020200Z 24006KT 15SM FEW180 BKN220 18/15 A2978 RMK AC1CI6
SLP086 DENSITY ALT 600FT=

TAF CYUL 020238Z 0203/0224 25006KT P6SM FEW050 BKN220
FM021600 24010G20KT P6SM SCT050
RMK NXT FCST BY 020600Z=
Your time UTC time
Weather data provided by Environment Canada and NAV CANADA